createdAt,value
2022-12-05T00:01:29.399Z,3.92
2022-12-05T00:03:59.046Z,2.60
2022-12-05T00:06:28.308Z,4.20
2022-12-05T00:08:56.726Z,3.95
2022-12-05T00:11:26.828Z,4.50
2022-12-05T00:13:55.984Z,4.15
2022-12-05T00:16:25.080Z,4.90
2022-12-05T00:18:56.355Z,4.75
2022-12-05T00:21:26.011Z,4.85
2022-12-05T00:23:55.063Z,5.63
2022-12-05T00:26:27.316Z,5.47
2022-12-05T00:28:55.393Z,5.60
2022-12-05T00:31:23.909Z,4.47
2022-12-05T00:33:52.285Z,4.63
2022-12-05T00:36:22.061Z,5.97
2022-12-05T00:38:50.003Z,3.55
2022-12-05T00:41:20.446Z,4.15
2022-12-05T00:43:48.299Z,4.28
2022-12-05T00:46:21.896Z,4.70
2022-12-05T00:48:50.086Z,4.90
2022-12-05T00:51:20.539Z,5.03
2022-12-05T00:53:48.451Z,5.25
2022-12-05T00:56:19.073Z,4.47
2022-12-05T00:58:47.287Z,5.30
2022-12-05T01:01:26.059Z,4.95
2022-12-05T01:03:55.297Z,2.92
2022-12-05T01:06:23.688Z,6.18
2022-12-05T01:08:53.646Z,5.07
2022-12-05T01:11:26.090Z,3.78
2022-12-05T01:13:55.245Z,5.03
2022-12-05T01:16:30.215Z,5.78
2022-12-05T01:18:59.095Z,5.35
2022-12-05T01:21:26.831Z,4.88
2022-12-05T01:23:55.981Z,3.28
2022-12-05T01:26:24.212Z,5.53
2022-12-05T01:28:52.341Z,4.78
2022-12-05T01:31:25.064Z,4.25
2022-12-05T01:33:56.090Z,4.07
2022-12-05T01:36:24.435Z,4.93
2022-12-05T01:38:52.209Z,4.72
2022-12-05T01:41:34.516Z,4.65
2022-12-05T01:44:13.013Z,3.78
2022-12-05T01:46:46.659Z,3.38
2022-12-05T01:49:28.741Z,4.35
2022-12-05T01:51:59.310Z,6.00
2022-12-05T01:54:29.073Z,5.25
2022-12-05T01:57:02.500Z,4.43
2022-12-05T01:59:34.625Z,4.82
2022-12-05T02:02:02.905Z,4.47
2022-12-05T02:04:31.541Z,5.10
2022-12-05T02:06:59.280Z,4.97
2022-12-05T02:09:27.165Z,3.30
2022-12-05T02:11:57.731Z,3.53
2022-12-05T02:15:02.560Z,5.45
2022-12-05T02:17:48.849Z,4.13
2022-12-05T02:20:57.768Z,3.13
2022-12-05T02:24:06.759Z,4.25
2022-12-05T02:26:49.710Z,4.13
2022-12-05T02:29:55.044Z,4.47
2022-12-05T02:32:41.858Z,3.88
2022-12-05T02:35:18.915Z,3.80
2022-12-05T02:37:54.897Z,4.53
2022-12-05T02:40:30.684Z,3.88
2022-12-05T02:43:06.527Z,4.28
2022-12-05T02:45:35.879Z,3.35
2022-12-05T02:48:04.285Z,4.07
2022-12-05T02:50:34.675Z,3.92
2022-12-05T02:53:10.181Z,4.95
2022-12-05T02:55:38.849Z,4.13
2022-12-05T02:58:09.564Z,5.28
2022-12-05T03:00:39.740Z,4.18
2022-12-05T03:03:16.189Z,4.82
2022-12-05T03:06:07.922Z,4.47
2022-12-05T03:08:51.401Z,3.03
2022-12-05T03:11:19.383Z,4.03
2022-12-05T03:14:06.595Z,4.15
2022-12-05T03:16:47.717Z,3.40
2022-12-05T03:19:26.902Z,6.03
2022-12-05T03:22:11.527Z,4.90
2022-12-05T03:24:40.454Z,4.50
2022-12-05T03:27:23.183Z,4.18
2022-12-05T03:30:02.191Z,3.25
2022-12-05T03:32:39.362Z,4.05
2022-12-05T03:35:23.202Z,3.55
2022-12-05T03:38:01.482Z,3.38
2022-12-05T03:40:38.348Z,3.75
2022-12-05T03:43:37.334Z,4.50
2022-12-05T03:46:06.370Z,4.47
2022-12-05T03:48:44.527Z,4.00
2022-12-05T03:51:12.396Z,3.13
2022-12-05T03:53:45.876Z,5.07
2022-12-05T03:56:16.550Z,5.30
2022-12-05T03:58:47.678Z,4.53
2022-12-05T04:01:16.786Z,4.47
2022-12-05T04:03:47.208Z,5.30
2022-12-05T04:06:29.510Z,4.53
2022-12-05T04:09:00.308Z,4.15
2022-12-05T04:11:29.148Z,3.55
2022-12-05T04:14:01.642Z,4.45
2022-12-05T04:16:58.566Z,5.50
2022-12-05T04:20:57.052Z,5.07
2022-12-05T04:23:25.689Z,3.65
2022-12-05T04:26:11.875Z,3.72
2022-12-05T04:28:49.756Z,3.85
2022-12-05T04:31:20.611Z,4.30
2022-12-05T04:33:54.915Z,5.35
2022-12-05T04:36:43.408Z,5.07
2022-12-05T04:39:18.560Z,4.63
2022-12-05T04:41:54.382Z,4.38
2022-12-05T04:44:25.688Z,5.43
2022-12-05T04:46:54.721Z,4.28
2022-12-05T04:49:43.138Z,4.28
2022-12-05T04:52:11.690Z,4.93
2022-12-05T04:55:26.252Z,4.78
2022-12-05T04:58:08.389Z,4.97
2022-12-05T05:00:52.767Z,4.13
2022-12-05T05:03:30.711Z,3.17
2022-12-05T05:05:59.020Z,4.20
2022-12-05T05:08:30.912Z,4.07
2022-12-05T05:11:17.817Z,4.07
2022-12-05T05:13:45.874Z,3.60
2022-12-05T05:16:38.403Z,5.22
2022-12-05T05:19:08.070Z,4.57
2022-12-05T05:21:41.664Z,5.90
2022-12-05T05:24:11.493Z,5.60
2022-12-05T05:26:40.811Z,6.53
2022-12-05T05:29:10.265Z,5.00
2022-12-05T05:31:39.186Z,6.78
2022-12-05T05:34:09.910Z,5.07
2022-12-05T05:36:45.366Z,6.82
2022-12-05T05:39:17.882Z,3.97
2022-12-05T05:41:45.749Z,5.95
2022-12-05T05:44:14.437Z,5.50
2022-12-05T05:46:43.477Z,6.47
2022-12-05T05:49:11.891Z,5.93
2022-12-05T05:51:40.475Z,7.40
2022-12-05T05:54:28.796Z,5.18
2022-12-05T05:56:57.411Z,4.32
2022-12-05T05:59:25.708Z,4.68
2022-12-05T06:01:54.392Z,6.20
2022-12-05T06:04:22.425Z,5.78
2022-12-05T06:06:54.653Z,6.90
2022-12-05T06:09:25.568Z,6.85
2022-12-05T06:11:54.540Z,6.53
2022-12-05T06:14:22.454Z,5.60
2022-12-05T06:16:52.475Z,5.28
2022-12-05T06:19:20.441Z,5.70
2022-12-05T06:21:50.816Z,6.47
2022-12-05T06:24:19.089Z,6.38
2022-12-05T06:26:49.786Z,6.35
2022-12-05T06:29:20.535Z,5.90
2022-12-05T06:31:52.365Z,5.63
2022-12-05T06:34:20.286Z,5.18
2022-12-05T06:36:48.451Z,4.75
2022-12-05T06:39:17.447Z,5.00
2022-12-05T06:41:46.742Z,5.85
2022-12-05T06:44:14.639Z,5.53
2022-12-05T06:46:46.235Z,5.95
2022-12-05T06:49:14.088Z,5.22
2022-12-05T06:51:43.421Z,5.28
2022-12-05T06:54:14.262Z,5.45
2022-12-05T06:56:42.477Z,7.45
2022-12-05T06:59:11.362Z,5.68
2022-12-05T07:01:43.452Z,6.13
2022-12-05T07:04:29.027Z,4.85
2022-12-05T07:07:11.485Z,7.18
2022-12-05T07:09:54.062Z,7.13
2022-12-05T07:12:41.857Z,4.75
2022-12-05T07:15:10.285Z,6.10
2022-12-05T07:17:42.707Z,5.32
2022-12-05T07:22:47.136Z,6.13
2022-12-05T07:25:23.402Z,6.05
2022-12-05T07:27:51.627Z,4.00
2022-12-05T07:30:28.816Z,5.00
2022-12-05T07:33:01.451Z,5.95
2022-12-05T07:35:30.213Z,6.50
2022-12-05T07:37:58.937Z,7.28
2022-12-05T07:40:47.464Z,6.97
2022-12-05T07:43:20.036Z,5.68
2022-12-05T07:46:14.774Z,4.80
2022-12-05T07:48:44.216Z,5.43
2022-12-05T07:51:14.898Z,4.80
2022-12-05T07:53:49.122Z,5.68
2022-12-05T07:56:17.725Z,4.50
2022-12-05T07:58:46.884Z,5.35
2022-12-05T08:01:20.212Z,4.78
2022-12-05T08:03:49.410Z,5.00
2022-12-05T08:06:45.132Z,5.45
2022-12-05T08:09:15.351Z,4.47
2022-12-05T08:11:50.959Z,5.00
2022-12-05T08:14:23.768Z,5.07
2022-12-05T08:16:52.622Z,5.45
2022-12-05T08:19:21.802Z,5.57
2022-12-05T08:21:53.213Z,3.75
2022-12-05T08:24:21.569Z,6.35
2022-12-05T08:26:50.063Z,5.20
2022-12-05T08:29:21.984Z,4.10
2022-12-05T08:31:53.535Z,5.00
2022-12-05T08:34:21.852Z,4.70
2022-12-05T08:36:50.120Z,4.95
2022-12-05T08:39:21.574Z,5.72
2022-12-05T08:41:49.811Z,4.97
2022-12-05T08:44:18.976Z,5.28
2022-12-05T08:46:51.191Z,5.40
2022-12-05T08:49:19.266Z,7.40
2022-12-05T08:51:47.470Z,6.05
2022-12-05T08:54:15.581Z,6.85
2022-12-05T08:56:46.633Z,5.65
2022-12-05T08:59:16.429Z,5.20
2022-12-05T09:01:45.469Z,5.05
2022-12-05T09:04:14.601Z,5.43
2022-12-05T09:06:42.598Z,5.00
2022-12-05T09:09:13.750Z,6.13
2022-12-05T09:11:47.502Z,5.70
2022-12-05T09:14:15.529Z,4.30
2022-12-05T09:16:46.343Z,5.30
2022-12-05T09:19:19.507Z,5.93
2022-12-05T09:21:47.606Z,5.20
2022-12-05T09:24:15.911Z,8.55
2022-12-05T09:26:44.389Z,6.45
2022-12-05T09:29:17.046Z,7.10
2022-12-05T09:31:47.136Z,4.63
2022-12-05T09:34:18.928Z,6.68
2022-12-05T09:37:01.379Z,6.32
2022-12-05T09:39:37.812Z,6.40
2022-12-05T09:42:25.940Z,6.60
2022-12-05T09:45:32.377Z,5.25
2022-12-05T09:48:01.798Z,6.32
2022-12-05T09:50:43.958Z,5.78
2022-12-05T09:53:12.578Z,4.97
2022-12-05T09:55:58.519Z,5.20
2022-12-05T09:58:33.639Z,5.80
2022-12-05T10:04:27.742Z,5.80
2022-12-05T10:07:16.097Z,5.25
2022-12-05T10:09:54.603Z,5.00
2022-12-05T10:12:41.325Z,5.18
2022-12-05T10:15:30.528Z,5.68
2022-12-05T10:18:23.326Z,4.93
2022-12-05T10:20:55.264Z,4.32
2022-12-05T10:26:30.230Z,6.43
2022-12-05T10:29:04.302Z,6.53
2022-12-05T10:31:37.724Z,4.75
2022-12-05T10:34:39.875Z,5.50
2022-12-05T10:37:17.957Z,5.65
2022-12-05T10:39:46.721Z,5.95
2022-12-05T10:42:24.499Z,5.55
2022-12-05T10:44:59.826Z,5.60
2022-12-05T10:47:28.046Z,4.88
2022-12-05T10:49:56.849Z,5.72
2022-12-05T10:52:25.596Z,5.15
2022-12-05T10:55:08.579Z,4.53
2022-12-05T10:57:36.466Z,6.63
2022-12-05T11:00:15.462Z,4.50
2022-12-05T11:02:44.065Z,4.22
2022-12-05T11:05:17.379Z,6.03
2022-12-05T11:07:48.516Z,4.03
2022-12-05T11:10:35.313Z,4.70
2022-12-05T11:13:04.847Z,4.55
2022-12-05T11:15:34.066Z,6.45
2022-12-05T11:18:28.944Z,4.85
2022-12-05T11:21:20.175Z,5.18
2022-12-05T11:23:49.749Z,4.95
2022-12-05T11:26:38.939Z,5.68
2022-12-05T11:29:29.599Z,4.90
2022-12-05T11:31:57.564Z,4.93
2022-12-05T11:34:32.946Z,5.28
2022-12-05T11:37:25.701Z,4.22
2022-12-05T11:39:55.967Z,4.13
2022-12-05T11:42:39.481Z,4.43
2022-12-05T11:45:26.578Z,4.35
2022-12-05T11:48:09.888Z,4.68
2022-12-05T11:50:59.264Z,4.80
2022-12-05T11:53:38.910Z,3.95
2022-12-05T11:56:27.908Z,3.40
2022-12-05T11:59:05.088Z,4.20
2022-12-05T12:01:48.161Z,5.07
2022-12-05T12:04:36.134Z,3.63
2022-12-05T12:07:23.120Z,4.15
2022-12-05T12:10:10.169Z,5.47
2022-12-05T12:12:51.630Z,3.95
2022-12-05T12:15:35.371Z,4.03
2022-12-05T12:18:22.179Z,4.53
2022-12-05T12:21:16.420Z,4.93
2022-12-05T12:24:20.485Z,3.80
2022-12-05T12:27:00.497Z,5.45
2022-12-05T12:29:59.548Z,5.28
2022-12-05T12:32:35.014Z,5.28
2022-12-05T12:35:05.245Z,5.30
2022-12-05T12:37:53.740Z,5.32
2022-12-05T12:40:50.226Z,4.43
2022-12-05T12:43:52.781Z,4.30
2022-12-05T12:49:11.377Z,5.30
2022-12-05T12:51:49.049Z,5.70
2022-12-05T12:55:02.730Z,5.97
2022-12-05T12:58:06.068Z,5.65
2022-12-05T13:01:12.364Z,5.15
2022-12-05T13:03:46.106Z,5.30
2022-12-05T13:06:29.266Z,5.43
2022-12-05T13:09:22.408Z,4.78
2022-12-05T13:11:51.292Z,5.82
2022-12-05T13:14:20.737Z,5.25
2022-12-05T13:16:50.915Z,5.88
2022-12-05T13:19:46.554Z,6.10
2022-12-05T13:22:21.188Z,6.05
2022-12-05T13:24:53.670Z,6.28
2022-12-05T13:27:33.251Z,6.97
2022-12-05T13:30:03.227Z,5.80
2022-12-05T13:32:36.178Z,6.70
2022-12-05T13:35:40.083Z,6.88
2022-12-05T13:38:51.561Z,7.55
2022-12-05T13:41:37.897Z,6.97
2022-12-05T13:44:12.612Z,7.68
2022-12-05T13:46:43.433Z,7.03
2022-12-05T13:49:17.740Z,6.93
2022-12-05T13:52:15.286Z,7.30
2022-12-05T13:54:57.836Z,7.47
2022-12-05T13:57:40.741Z,7.32
2022-12-05T14:00:11.078Z,7.18
2022-12-05T14:02:46.222Z,7.53
2022-12-05T14:05:22.779Z,7.57
2022-12-05T14:07:56.426Z,8.50
2022-12-05T14:12:58.040Z,7.45
2022-12-05T14:15:31.171Z,8.52
2022-12-05T14:18:14.272Z,8.93
2022-12-05T14:21:16.803Z,8.50
2022-12-05T14:23:56.177Z,6.72
2022-12-05T14:27:09.607Z,7.43
2022-12-05T14:30:08.306Z,8.70
2022-12-05T14:32:37.749Z,7.65
2022-12-05T14:35:22.583Z,8.20
2022-12-05T14:37:59.676Z,6.88
2022-12-05T14:40:30.696Z,6.75
2022-12-05T14:43:03.468Z,7.05
2022-12-05T14:45:48.181Z,7.57
2022-12-05T14:48:17.435Z,7.28
2022-12-05T14:50:49.685Z,7.38
2022-12-05T14:53:21.668Z,5.95
2022-12-05T14:56:16.514Z,6.65
2022-12-05T14:58:57.817Z,7.72
2022-12-05T15:01:50.292Z,6.68
2022-12-05T15:04:40.403Z,8.82
2022-12-05T15:07:21.756Z,6.97
2022-12-05T15:10:04.152Z,5.80
2022-12-05T15:12:48.478Z,5.18
2022-12-05T15:15:40.428Z,4.57
2022-12-05T15:18:44.315Z,3.85
2022-12-05T15:21:36.292Z,5.10
2022-12-05T15:24:06.745Z,6.78
2022-12-05T15:26:49.278Z,4.72
2022-12-05T15:29:27.885Z,5.22
2022-12-05T15:32:11.378Z,5.13
2022-12-05T15:34:49.983Z,4.50
2022-12-05T15:37:20.915Z,4.18
2022-12-05T15:40:15.551Z,5.28
2022-12-05T15:42:46.070Z,4.80
2022-12-05T15:45:14.845Z,5.25
2022-12-05T15:47:48.695Z,3.88
2022-12-05T15:50:48.020Z,5.10
2022-12-05T15:53:34.223Z,4.57
2022-12-05T15:58:49.676Z,6.38
2022-12-05T16:01:24.246Z,5.68
2022-12-05T16:04:01.671Z,4.10
2022-12-05T16:06:33.096Z,6.40
2022-12-05T16:09:01.415Z,5.68
2022-12-05T16:11:30.250Z,5.07
2022-12-05T16:13:59.754Z,6.45
2022-12-05T16:16:32.401Z,5.70
2022-12-05T16:19:16.088Z,6.70
2022-12-05T16:21:48.649Z,5.53
2022-12-05T16:24:23.782Z,7.60
2022-12-05T16:27:13.666Z,7.50
2022-12-05T16:29:41.759Z,6.82
2022-12-05T21:50:09.827Z,5.60
2022-12-05T21:52:41.865Z,6.30
2022-12-05T21:55:10.292Z,6.05
2022-12-05T21:57:39.125Z,5.93
2022-12-05T22:00:08.299Z,5.70
2022-12-05T22:02:36.358Z,5.35
2022-12-05T22:05:04.589Z,5.63
2022-12-05T22:07:34.279Z,6.05
2022-12-05T22:10:02.411Z,5.47
2022-12-05T22:12:34.004Z,4.85
2022-12-05T22:15:01.959Z,3.67
2022-12-05T22:17:30.950Z,4.95
2022-12-05T22:19:59.231Z,5.53
2022-12-05T22:22:27.382Z,4.43
2022-12-05T22:24:57.418Z,4.72
2022-12-05T22:27:27.342Z,5.10
2022-12-05T22:29:56.347Z,4.68
2022-12-05T22:32:24.402Z,3.08
2022-12-05T22:34:52.716Z,4.75
2022-12-05T22:37:20.867Z,4.63
2022-12-05T22:39:50.490Z,5.20
2022-12-05T22:42:19.314Z,5.70
2022-12-05T22:44:47.498Z,4.95
2022-12-05T22:47:15.426Z,5.75
2022-12-05T22:49:43.388Z,5.63
2022-12-05T22:52:11.235Z,6.50
2022-12-05T22:54:41.831Z,5.45
2022-12-05T22:57:10.289Z,5.22
2022-12-05T22:59:38.248Z,6.65
2022-12-05T23:02:06.796Z,6.30
2022-12-05T23:04:34.776Z,6.28
2022-12-05T23:07:02.782Z,7.38
2022-12-05T23:09:30.552Z,6.57
2022-12-05T23:11:58.578Z,6.90
2022-12-05T23:14:26.746Z,5.70
2022-12-05T23:16:55.039Z,6.00
2022-12-05T23:19:23.190Z,4.88
2022-12-05T23:21:51.217Z,4.78
2022-12-05T23:24:19.530Z,4.30
2022-12-05T23:26:47.438Z,4.55
2022-12-05T23:29:15.561Z,4.57
2022-12-05T23:31:43.808Z,3.58
2022-12-05T23:34:12.172Z,5.68
2022-12-05T23:36:40.241Z,6.95
2022-12-05T23:39:08.049Z,7.32
2022-12-05T23:41:36.706Z,6.38
2022-12-05T23:44:05.269Z,5.80
2022-12-05T23:46:33.309Z,5.28
2022-12-05T23:49:01.267Z,5.20
2022-12-05T23:51:54.469Z,5.03
2022-12-05T23:54:24.321Z,4.90
2022-12-05T23:56:52.209Z,3.20
2022-12-05T23:59:20.421Z,5.18
